ADDS METAR Data INFO
IDs: Format: Raw Decoded Include TAF

Data at: 2346 UTC 15 Dec 2017

KPPQ 152335Z AUTO 22006KT 10SM CLR 03/M06 A3002 RMK AO2 T00321062
KPPQ 152315Z AUTO 22006KT 10SM CLR 04/M06 A3001 RMK AO2 T00361062
KPPQ 152255Z AUTO 22008KT 10SM CLR 04/M06 A3001 RMK AO2 T00441061
KPPQ 152235Z AUTO 23009G15KT 10SM CLR 05/M06 A3001 RMK AO2 T00481061
KPPQ 152215Z AUTO 23010KT 10SM CLR 06/M06 A3002 RMK AO2 T00551061
KPPQ 152155Z AUTO 24011KT 10SM CLR 06/M06 A3002 RMK AO2 T00571061
KPPQ 152135Z AUTO 24011G15KT 10SM CLR 06/M06 A3002 RMK AO2 T00581061
KPPQ 152115Z AUTO 25012G17KT 10SM CLR 06/M06 A3002 RMK AO2 T00581061
KPPQ 152055Z AUTO 23010KT 10SM CLR 06/M05 A3002 RMK AO2 T00601055
KPPQ 152035Z AUTO 24009KT 10SM CLR 06/M05 A3002 RMK AO2 T00551053
KPPQ 152015Z AUTO 23011G14KT 10SM SCT055 05/M06 A3003 RMK AO2 T00501060
KPPQ 151955Z AUTO 24007KT 10SM OVC055 05/M06 A3003 RMK AO2 T00501056
KPPQ 151935Z AUTO 24010KT 10SM OVC055 05/M06 A3003 RMK AO2 T00471056
KPPQ 151915Z AUTO 24012G16KT 10SM OVC055 05/M05 A3004 RMK AO2 T00451052
KPPQ 151855Z AUTO 25009KT 10SM OVC055 04/M05 A3005 RMK AO2 T00411055
KPPQ 151835Z AUTO 27007KT 10SM OVC055 04/M06 A3005 RMK AO2 T00371057
KPPQ 151815Z AUTO 26010G14KT 10SM OVC055 04/M06 A3006 RMK AO2 T00401058
KPPQ 151755Z AUTO 25011KT 10SM BKN055 04/M06 A3007 RMK AO2 T00371064 10044 21005
KPPQ 151735Z AUTO 27012G16KT 10SM SCT055 04/M06 A3008 RMK AO2 T00361064
KPPQ 151715Z AUTO 28008KT 10SM CLR 03/M06 A3009 RMK AO2 T00331065
KPPQ 151655Z AUTO 29010KT 10SM CLR 03/M06 A3009 RMK AO2 T00291059
KPPQ 151635Z AUTO 29010G16KT 10SM CLR 02/M06 A3010 RMK AO2 T00231056
KPPQ 151615Z AUTO 30010G16KT 10SM CLR 02/M05 A3009 RMK AO2 T00221055
KPPQ 151555Z AUTO 28012KT 10SM CLR 02/M05 A3010 RMK AO2 T00201054
KPPQ 151535Z AUTO 29010G14KT 10SM SCT021 02/M05 A3009 RMK AO2 T00151049
KPPQ 151515Z AUTO 29004KT 10SM SCT023 SCT050 02/M03 A3008 RMK AO2 T00151033
KPPQ 151455Z AUTO 27007KT 10SM SCT024 BKN050 01/M03 A3009 RMK AO2 T00071032
KPPQ 151435Z AUTO 27008KT 10SM SCT024 BKN030 OVC050 01/M03 A3009 RMK AO2 T00071032
KPPQ 151415Z AUTO 27006KT 10SM OVC029 00/M03 A3008 RMK AO2 T00041035
KPPQ 151355Z AUTO 28005KT 10SM BKN027 OVC033 00/M04 A3008 RMK AO2 T00011037
KPPQ 151330Z AUTO 27004KT 10SM BKN026 OVC036 00/M04 A3007 RMK AO2 T00001038
KPPQ 151315Z AUTO 24006KT 10SM BKN024 OVC030 00/M04 A3007 RMK AO2 T00001038
KPPQ 151255Z AUTO 25005KT 10SM BKN022 OVC030 00/M04 A3007 RMK AO2 T00001040
KPPQ 151235Z AUTO 25006KT 10SM BKN022 BKN027 OVC060 00/M04 A3007 RMK AO2 T00001041
KPPQ 151215Z AUTO 25006KT 10SM OVC028 00/M04 A3007 RMK AO2 T10031042
KPPQ 151155Z AUTO 25005KT 10SM SCT030 BKN034 OVC043 00/M04 A3007 RMK AO2 T10051045 11005 21028
KPPQ 151135Z AUTO 25007KT 10SM BKN036 OVC044 M01/M05 A3007 RMK AO2 T10061046
KPPQ 151115Z AUTO 25007KT 10SM OVC036 M01/M05 A3007 RMK AO2 T10061049
KPPQ 151055Z AUTO 25006KT 10SM BKN038 OVC047 M01/M05 A3007 RMK AO2 T10081050
KPPQ 151035Z AUTO 24006KT 10SM OVC047 M01/M05 A3007 RMK AO2 T10101052
KPPQ 151015Z AUTO 25005KT 10SM OVC049 M01/M05 A3007 RMK AO2 T10111055
KPPQ 150955Z AUTO 23005KT 10SM OVC049 M02/M05 A3006 RMK AO2 T10171055
KPPQ 150935Z AUTO 19004KT 10SM BKN049 M02/M06 A3007 RMK AO2 T10211058
KPPQ 150915Z AUTO 22006KT 10SM SCT049 M03/M06 A3008 RMK AO2 T10281062
KPPQ 150855Z AUTO 22006KT 10SM SCT035 M03/M06 A3008 RMK AO2 T10271062
KPPQ 150835Z AUTO 23005KT 10SM BKN035 M02/M06 A3008 RMK AO2 T10211062
KPPQ 150815Z AUTO 23004KT 10SM OVC035 M02/M06 A3008 RMK AO2 T10161061
KPPQ 150755Z AUTO 24004KT 10SM OVC033 M02/M06 A3008 RMK AO2 T10161061
KPPQ 150735Z AUTO 24003KT 10SM OVC033 M02/M06 A3008 RMK AO2 T10161062
KPPQ 150715Z AUTO 24005KT 10SM OVC033 M02/M06 A3009 RMK AO2 T10171062
KPPQ 150655Z AUTO 23004KT 10SM OVC033 M02/M06 A3008 RMK AO2 T10171065
KPPQ 150635Z AUTO 25003KT 10SM OVC033 M02/M06 A3009 RMK AO2 T10171065
KPPQ 150615Z AUTO 24004KT 10SM OVC031 M02/M07 A3009 RMK AO2 T10171066
KPPQ 150555Z AUTO 25004KT 10SM OVC031 M02/M07 A3010 RMK AO2 T10171067 11016 21025 400161025
KPPQ 150535Z AUTO 23003KT 10SM OVC031 M02/M07 A3011 RMK AO2 T10201068
KPPQ 150515Z AUTO 24004KT 10SM OVC031 M02/M07 A3012 RMK AO2 T10201070
KPPQ 150455Z AUTO 25003KT 10SM OVC031 M02/M07 A3012 RMK AO2 T10201070
KPPQ 150435Z AUTO 23003KT 10SM OVC031 M02/M07 A3013 RMK AO2 T10211070
KPPQ 150415Z AUTO 24003KT 10SM OVC031 M02/M07 A3012 RMK AO2 T10211070
KPPQ 150355Z AUTO 23003KT 10SM OVC031 M02/M07 A3012 RMK AO2 T10231070
KPPQ 150335Z AUTO 00000KT 10SM OVC031 M02/M07 A3012 RMK AO2 T10251070
KPPQ 150315Z AUTO 00000KT 10SM OVC031 M02/M07 A3012 RMK AO2 T10221071
KPPQ 150255Z AUTO 00000KT 10SM OVC031 M02/M07 A3013 RMK AO2 T10201073
KPPQ 150235Z AUTO 00000KT 10SM OVC029 M02/M07 A3012 RMK AO2 T10201073
KPPQ 150215Z AUTO 32003KT 10SM OVC027 M02/M07 A3012 RMK AO2 T10201072
KPPQ 150155Z AUTO 29005KT 10SM OVC027 M02/M07 A3013 RMK AO2 T10171075
KPPQ 150135Z AUTO 29004KT 10SM OVC029 M02/M07 A3013 RMK AO2 T10161075
KPPQ 150115Z AUTO 29005KT 10SM OVC029 M02/M08 A3013 RMK AO2 T10161076
KPPQ 150055Z AUTO 29003KT 10SM OVC029 M02/M07 A3013 RMK AO2 T10171075
KPPQ 150035Z AUTO 00000KT 10SM OVC029 M02/M07 A3012 RMK AO2 T10171075
KPPQ 150015Z AUTO 00000KT 10SM OVC029 M02/M08 A3012 RMK AO2 T10161076
KPPQ 142355Z AUTO 31003KT 10SM OVC029 M01/M08 A3012 RMK AO2 T10151076 11007 21016
KPPQ 142335Z AUTO 30003KT 10SM OVC029 M01/M08 A3011 RMK AO2 T10151076
KPPQ 142315Z AUTO 31004KT 10SM OVC029 M01/M07 A3011 RMK AO2 T10151075
KPPQ 142255Z AUTO 30006KT 10SM OVC029 M01/M08 A3011 RMK AO2 T10151076
KPPQ 142235Z AUTO 29004KT 10SM OVC029 M01/M07 A3010 RMK AO2 T10121075
KPPQ 142215Z AUTO 29003KT 10SM OVC029 M01/M08 A3010 RMK AO2 T10111076
KPPQ 142155Z AUTO 28003KT 10SM OVC031 M01/M08 A3010 RMK AO2 T10101076
KPPQ 142135Z AUTO 28004KT 10SM OVC031 M01/M08 A3010 RMK AO2 T10101077
KPPQ 142115Z AUTO 29006KT 10SM OVC031 M01/M08 A3010 RMK AO2 T10101079
KPPQ 142055Z AUTO 00000KT 10SM OVC031 M01/M08 A3009 RMK AO2 T10101080
KPPQ 142035Z AUTO 27003KT 10SM OVC031 M01/M08 A3009 RMK AO2 T10111082
KPPQ 142015Z AUTO 00000KT 10SM OVC031 M01/M08 A3008 RMK AO2 T10101080
KPPQ 141955Z AUTO 30004KT 10SM OVC031 M01/M08 A3008 RMK AO2 T10101079
KPPQ 141935Z AUTO 26003KT 10SM OVC031 M01/M08 A3008 RMK AO2 T10121082
KPPQ 141915Z AUTO 00000KT 10SM OVC029 M01/M08 A3008 RMK AO2 T10131080
KPPQ 141855Z AUTO 00000KT 10SM OVC029 M01/M08 A3009 RMK AO2 T10121081
KPPQ 141835Z AUTO 00000KT 10SM OVC029 M02/M08 A3010 RMK AO2 T10161084
KPPQ 141815Z AUTO 00000KT 10SM OVC027 M02/M08 A3010 RMK AO2 T10161084
KPPQ 141755Z AUTO 00000KT 10SM OVC027 M01/M08 A3010 RMK AO2 T10141081 11014 21025
KPPQ 141735Z AUTO 00000KT 10SM OVC027 M02/M08 A3010 RMK AO2 T10171081
KPPQ 141715Z AUTO 00000KT 10SM OVC027 M02/M08 A3011 RMK AO2 T10191083
KPPQ 141655Z AUTO 33006KT 10SM OVC027 M02/M08 A3011 RMK AO2 T10201081
KPPQ 141635Z AUTO 36005KT 10SM OVC027 M02/M08 A3012 RMK AO2 T10201081
KPPQ 141615Z AUTO 32004KT 10SM OVC027 M02/M08 A3012 RMK AO2 T10211080
KPPQ 141555Z AUTO 34006KT 10SM OVC025 M02/M08 A3011 RMK AO2 T10201080
KPPQ 141535Z AUTO 36005KT 10SM OVC025 M02/M08 A3011 RMK AO2 T10221081
KPPQ 141515Z AUTO 33006KT 10SM OVC025 M02/M08 A3010 RMK AO2 T10211079
KPPQ 141455Z AUTO 03003KT 10SM OVC025 M02/M08 A3010 RMK AO2 T10251082
KPPQ 141435Z AUTO 32006KT 10SM OVC025 M02/M08 A3009 RMK AO2 T10231079
KPPQ 141415Z AUTO 31005KT 10SM OVC025 M02/M08 A3008 RMK AO2 T10231078
KPPQ 141355Z AUTO 32005KT 10SM OVC025 M02/M08 A3007 RMK AO2 T10251080
KPPQ 141335Z AUTO 03003KT 10SM OVC025 M02/M08 A3006 RMK AO2 T10251077
KPPQ 141315Z AUTO 00000KT 10SM OVC025 M02/M07 A3005 RMK AO2 T10231075
KPPQ 141255Z AUTO 36005KT 10SM OVC025 M02/M07 A3004 RMK AO2 T10231075
KPPQ 141235Z AUTO 36005KT 10SM OVC025 M02/M07 A3004 RMK AO2 T10221075
KPPQ 141215Z AUTO 36005KT 10SM OVC025 M02/M07 A3003 RMK AO2 T10221075
KPPQ 141155Z AUTO 01005KT 10SM OVC025 M02/M07 A3002 RMK AO2 T10211075 10016 21021